Time;durP1;ratioP1;P1;durP2;ratioP2;P2;SDS_P1;SDS_P2;PMS_P1;PMS_P2;Temp;Humidity;BMP_temperature;BMP_pressure;BME280_temperature;BME280_humidity;BME280_pressure;Samples;Min_cycle;Max_cycle;Signal;HPM_P1;HPM_P2
2022/06/23 00:00:05;;;;;;;5.50;3.00;;;;;;;19.35;49.34;100934.41;3570677;40;20052;-63
2022/06/23 00:02:38;;;;;;;6.32;3.40;;;;;;;19.30;49.45;100928.53;3571684;40;20045;-63
2022/06/23 00:05:16;;;;;;;5.07;3.27;;;;;;;19.28;50.55;100922.38;3572617;40;20310;-63
2022/06/23 00:07:57;;;;;;;5.57;2.95;;;;;;;19.25;50.62;100915.34;3573323;40;20426;-63
2022/06/23 00:10:45;;;;;;;4.47;3.30;;;;;;;19.23;50.71;100925.56;3572946;40;20065;-63
2022/06/23 00:13:34;;;;;;;5.55;3.13;;;;;;;19.18;51.69;100920.53;3569930;40;20130;-63
2022/06/23 00:16:02;;;;;;;4.80;3.40;;;;;;;19.11;52.19;100913.13;3570348;40;20052;-63
2022/06/23 00:18:35;;;;;;;5.25;3.42;;;;;;;19.11;51.99;100924.88;3570774;40;20068;-63
2022/06/23 00:21:30;;;;;;;6.65;3.70;;;;;;;19.07;52.00;100928.91;3564918;40;20381;-63
2022/06/23 00:24:03;;;;;;;7.43;3.60;;;;;;;19.05;52.91;100916.44;3566190;40;20056;-63
2022/06/23 00:26:36;;;;;;;7.97;3.78;;;;;;;19.03;53.49;100916.59;3571368;40;20065;-63
2022/06/23 00:29:13;;;;;;;11.07;3.92;;;;;;;18.99;53.40;100917.88;3570711;40;20072;-63
2022/06/23 00:32:05;;;;;;;7.70;3.85;;;;;;;18.92;54.54;100933.09;3570722;40;20049;-63
2022/06/23 00:34:37;;;;;;;6.53;3.85;;;;;;;18.85;54.87;100935.53;3570005;40;20156;-63
2022/06/23 00:37:17;;;;;;;6.53;3.72;;;;;;;18.86;55.10;100933.69;3570406;40;20134;-63
2022/06/23 00:39:53;;;;;;;6.18;4.00;;;;;;;18.82;55.86;100930.38;3572399;40;20066;-63
2022/06/23 00:42:40;;;;;;;10.75;4.13;;;;;;;18.82;55.72;100924.09;3569488;40;20093;-63
2022/06/23 00:45:29;;;;;;;6.53;4.50;;;;;;;18.77;56.58;100932.69;3569821;40;20048;-63
2022/06/23 00:48:10;;;;;;;6.25;4.35;;;;;;;18.65;56.40;100903.84;3567401;40;20053;-63
2022/06/23 00:50:53;;;;;;;6.95;4.40;;;;;;;18.71;56.39;100920.50;3568916;40;20076;-62
2022/06/23 00:53:27;;;;;;;;;;;;;;;18.67;57.35;100910.88;3567614;40;20048;-63
2022/06/23 00:56:09;;;;;;;6.72;4.43;;;;;;;18.64;57.65;100900.28;3569219;40;19936;-63
2022/06/23 00:58:42;;;;;;;8.63;4.38;;;;;;;18.61;57.61;100900.56;3569022;40;20129;-63
2022/06/23 01:01:40;;;;;;;9.27;5.13;;;;;;;18.58;57.11;100903.56;3572910;40;20061;-63
2022/06/23 01:04:28;;;;;;;8.60;4.75;;;;;;;18.55;57.78;100906.59;3569195;40;20046;-63
2022/06/23 01:07:30;;;;;;;8.77;5.35;;;;;;;18.53;58.71;100903.16;3566160;40;20122;-64
2022/06/23 01:10:18;;;;;;;8.50;4.82;;;;;;;18.49;58.07;100893.53;3566891;40;20106;-65
2022/06/23 01:13:06;;;;;;;8.05;5.38;;;;;;;18.46;58.54;100904.75;3571155;40;20120;-64
2022/06/23 01:15:54;;;;;;;7.20;5.10;;;;;;;18.42;59.72;100895.13;3569051;40;20517;-65
2022/06/23 01:18:32;;;;;;;8.48;5.30;;;;;;;18.45;59.50;100905.75;3569023;40;20436;-65
2022/06/23 01:21:12;;;;;;;9.60;5.70;;;;;;;18.15;59.49;100864.06;3569617;40;20087;-64
2022/06/23 01:24:12;;;;;;;8.95;5.60;;;;;;;18.37;60.61;100902.91;3571252;40;20054;-64
2022/06/23 01:26:59;;;;;;;10.93;5.80;;;;;;;18.31;60.64;100894.28;3570632;40;20961;-65
2022/06/23 01:30:02;;;;;;;12.40;5.85;;;;;;;18.30;60.63;100899.88;3572408;40;20063;-64
2022/06/23 01:32:41;;;;;;;9.95;5.32;;;;;;;18.26;61.21;100903.88;3560038;40;20096;-64
2022/06/23 01:35:45;;;;;;;8.65;6.20;;;;;;;18.22;62.01;100897.88;3571784;40;20146;-65
2022/06/23 01:38:46;;;;;;;8.20;5.33;;;;;;;18.22;61.82;100906.03;3569314;40;20052;-65
2022/06/23 01:41:24;;;;;;;9.68;5.80;;;;;;;18.19;62.22;100900.88;3566885;40;20423;-65
2022/06/23 01:44:36;;;;;;;12.00;6.25;;;;;;;18.20;62.48;100899.00;3560330;40;20074;-64
2022/06/23 01:47:35;;;;;;;10.98;5.82;;;;;;;18.17;62.98;100904.72;3567787;40;20387;-65
2022/06/23 01:50:13;;;;;;;9.48;6.15;;;;;;;18.15;63.50;100904.88;3568430;40;20053;-64
2022/06/23 01:52:43;;;;;;;11.07;6.22;;;;;;;18.11;63.29;100898.00;3570813;40;20057;-64
2022/06/23 01:56:08;;;;;;;9.77;6.45;;;;;;;18.15;63.14;100898.59;3569049;40;20052;-64
2022/06/23 01:59:19;;;;;;;9.32;6.85;;;;;;;18.12;64.23;100891.56;3567635;40;20045;-65
2022/06/23 02:02:11;;;;;;;14.70;7.30;;;;;;;18.09;63.95;100900.00;3567457;40;20151;-65
2022/06/23 02:04:59;;;;;;;11.50;7.05;;;;;;;18.14;64.65;100896.84;3568545;40;20062;-65
2022/06/23 02:08:04;;;;;;;14.27;7.05;;;;;;;18.14;63.81;100885.97;3566219;40;20085;-65
2022/06/23 02:11:03;;;;;;;11.77;7.20;;;;;;;18.14;64.59;100886.84;3558603;40;20371;-64
2022/06/23 02:13:59;;;;;;;10.45;6.65;;;;;;;18.14;63.90;100889.56;3566450;40;20127;-65
2022/06/23 02:16:53;;;;;;;11.98;7.60;;;;;;;18.13;64.54;100889.69;3570097;40;20101;-65
2022/06/23 02:19:48;;;;;;;10.98;6.70;;;;;;;18.06;64.90;100894.84;3568679;40;20064;-65
2022/06/23 02:22:25;;;;;;;13.95;7.22;;;;;;;18.06;64.24;100889.41;3567705;40;20065;-64
2022/06/23 02:25:25;;;;;;;12.52;7.57;;;;;;;18.07;64.07;100880.22;3569227;40;20118;-65
2022/06/23 02:28:31;;;;;;;11.48;7.70;;;;;;;18.04;64.52;100870.50;3569369;40;20087;-65
2022/06/23 02:31:46;;;;;;;9.43;7.63;;;;;;;18.07;64.67;100885.69;3569332;40;21443;-65
2022/06/23 02:34:37;;;;;;;;;;;;;;;18.03;65.32;100884.25;3571488;40;20307;-65
2022/06/23 02:37:45;;;;;;;14.35;7.82;;;;;;;18.01;65.45;100884.38;3569797;40;19951;-65
2022/06/23 02:40:51;;;;;;;12.10;8.25;;;;;;;18.00;65.01;100884.53;3570608;40;20049;-64
2022/06/23 02:43:39;;;;;;;10.60;7.43;;;;;;;17.94;65.65;100880.50;3570035;40;20055;-65
2022/06/23 02:46:23;;;;;;;9.63;7.35;;;;;;;17.94;65.38;100885.09;3569652;40;20123;-65
2022/06/23 02:49:16;;;;;;;13.32;7.65;;;;;;;17.94;64.69;100887.81;3570424;40;20048;-65
2022/06/23 02:52:19;;;;;;;10.32;7.38;;;;;;;17.95;64.76;100878.66;3569967;40;20358;-65
2022/06/23 02:55:18;;;;;;;10.40;7.57;;;;;;;17.93;64.96;100877.94;3570111;40;20117;-64
2022/06/23 02:57:53;;;;;;;11.70;8.00;;;;;;;17.91;65.27;100874.50;3566530;40;20076;-64
2022/06/23 03:00:30;;;;;;;11.23;7.70;;;;;;;17.89;65.01;100871.94;3570923;40;20156;-64
2022/06/23 03:03:10;;;;;;;10.82;7.10;;;;;;;17.88;64.70;100858.47;3570721;40;20146;-64
2022/06/23 03:05:49;;;;;;;9.98;7.65;;;;;;;17.89;64.67;100865.59;3571887;40;20061;-65
2022/06/23 03:08:34;;;;;;;11.75;7.88;;;;;;;17.85;64.87;100865.03;3569238;40;20057;-65
2022/06/23 03:11:16;;;;;;;12.98;7.97;;;;;;;17.83;64.78;100861.63;3569664;40;20379;-64
2022/06/23 03:13:47;;;;;;;12.68;8.10;;;;;;;17.76;65.16;100864.00;3570941;40;20052;-65
2022/06/23 03:16:49;;;;;;;10.98;8.23;;;;;;;17.69;64.73;100857.38;3570749;40;20054;-65
2022/06/23 03:19:53;;;;;;;8.80;7.72;;;;;;;17.65;65.78;100853.25;3568930;40;20123;-65
2022/06/23 03:23:00;;;;;;;13.07;7.70;;;;;;;17.59;65.10;100842.94;3570239;40;20388;-65
2022/06/23 03:25:43;;;;;;;12.35;7.55;;;;;;;17.57;65.82;100847.63;3568810;40;20085;-64
2022/06/23 03:28:30;;;;;;;12.05;7.78;;;;;;;17.56;64.89;100845.91;3567888;40;20065;-64
2022/06/23 03:31:13;;;;;;;12.90;8.13;;;;;;;17.50;65.40;100850.06;3570244;40;20118;-65
2022/06/23 03:33:58;;;;;;;12.68;8.00;;;;;;;17.47;65.63;100865.78;3559100;40;20407;-63
2022/06/23 03:37:02;;;;;;;15.18;8.00;;;;;;;17.45;65.66;100862.38;3567874;40;20091;-63
2022/06/23 03:43:05;;;;;;;12.35;7.75;;;;;;;17.16;65.44;100834.09;3569251;40;20055;-62
2022/06/23 03:46:20;;;;;;;12.52;7.78;;;;;;;17.46;65.05;100869.50;3569070;40;20065;-62
2022/06/23 03:49:14;;;;;;;9.38;7.63;;;;;;;17.45;65.10;100868.66;3569530;40;20060;-62
2022/06/23 03:52:05;;;;;;;12.82;7.97;;;;;;;17.43;65.16;100870.63;3571503;40;20315;-62
2022/06/23 03:54:52;;;;;;;12.95;8.38;;;;;;;17.44;65.48;100871.50;3569998;40;20053;-62
2022/06/23 03:57:38;;;;;;;14.02;8.10;;;;;;;17.42;64.83;100873.50;3571091;40;20061;-62
2022/06/23 04:00:54;;;;;;;12.45;7.82;;;;;;;17.43;64.95;100864.34;3570824;40;20053;-63
2022/06/23 04:03:37;;;;;;;11.95;8.05;;;;;;;17.47;64.27;100869.34;3567694;40;20056;-62
2022/06/23 04:06:32;;;;;;;12.48;8.48;;;;;;;17.49;65.06;100863.78;3570764;40;20064;-62
2022/06/23 04:09:27;;;;;;;10.48;7.43;;;;;;;17.51;64.79;100861.81;3571029;40;20057;-62
2022/06/23 04:12:11;;;;;;;10.85;7.55;;;;;;;17.55;64.82;100860.53;3568587;40;20111;-62
2022/06/23 04:14:48;;;;;;;10.45;7.05;;;;;;;17.57;64.28;100861.22;3567888;40;20150;-62
2022/06/23 04:17:38;;;;;;;10.20;6.57;;;;;;;17.64;63.35;100856.97;3567102;40;20061;-62
2022/06/23 04:20:44;;;;;;;21.60;9.18;;;;;;;17.69;62.86;100856.53;3568447;40;20089;-62
2022/06/23 04:23:28;;;;;;;12.52;8.85;;;;;;;17.72;61.95;100848.94;3567038;40;20093;-62
2022/06/23 04:26:07;;;;;;;10.30;7.32;;;;;;;17.74;62.38;100844.25;3568569;40;20706;-62
2022/06/23 04:29:10;;;;;;;11.35;6.68;;;;;;;17.74;61.62;100846.97;3566224;40;20076;-62
2022/06/23 04:31:52;;;;;;;11.82;6.55;;;;;;;17.76;60.89;100861.28;3568605;40;20107;-62
2022/06/23 04:34:28;;;;;;;6.95;5.80;;;;;;;17.79;60.71;100866.47;3569611;40;20053;-60
2022/06/23 04:36:54;;;;;;;10.60;6.75;;;;;;;17.86;60.61;100869.50;3569869;40;21701;-63
2022/06/23 04:39:42;;;;;;;11.30;6.43;;;;;;;17.95;59.77;100865.03;3567340;40;20069;-62
2022/06/23 04:42:25;;;;;;;10.60;7.10;;;;;;;17.98;60.09;100864.75;3570139;40;20311;-63
2022/06/23 04:45:02;;;;;;;10.35;6.43;;;;;;;18.02;59.68;100871.66;3570470;40;20067;-63
2022/06/23 04:47:32;;;;;;;11.85;6.57;;;;;;;18.09;59.94;100868.22;3561377;40;20068;-62
2022/06/23 04:50:12;;;;;;;10.55;6.57;;;;;;;18.15;60.18;100858.63;3567364;40;20071;-62
2022/06/23 04:52:55;;;;;;;8.68;6.03;;;;;;;18.17;59.53;100863.91;3570364;40;20057;-62
2022/06/23 04:55:30;;;;;;;11.25;6.78;;;;;;;18.18;59.69;100861.06;3568031;40;20060;-62
2022/06/23 04:57:59;;;;;;;10.30;6.28;;;;;;;18.20;59.38;100856.31;3568389;40;20068;-62
2022/06/23 05:00:52;;;;;;;8.95;6.55;;;;;;;18.20;59.70;100856.31;3567818;40;20065;-63
2022/06/23 05:03:32;;;;;;;12.17;6.37;;;;;;;18.27;58.71;100862.94;3566071;40;20370;-62
2022/06/23 05:06:29;;;;;;;9.40;5.95;;;;;;;18.31;58.93;100867.06;3566352;40;20272;-63
2022/06/23 05:09:03;;;;;;;11.02;5.95;;;;;;;18.37;59.09;100865.66;3567702;40;20935;-64
2022/06/23 05:11:44;;;;;;;6.80;5.95;;;;;;;18.42;57.44;100865.19;3567566;40;20057;-63
2022/06/23 05:14:45;;;;;;;11.00;6.05;;;;;;;18.49;58.45;100861.75;3562753;40;20081;-63
2022/06/23 05:17:28;;;;;;;7.53;6.18;;;;;;;18.55;58.63;100871.19;3567565;40;20059;-63
2022/06/23 05:20:00;;;;;;;10.15;6.07;;;;;;;18.59;57.90;100859.03;3566292;40;20710;-63
2022/06/23 05:22:39;;;;;;;10.15;5.80;;;;;;;18.71;57.38;100866.03;3567034;40;20073;-64
2022/06/23 05:25:31;;;;;;;6.80;5.80;;;;;;;18.76;57.47;100858.28;3568655;40;20118;-63
2022/06/23 05:27:57;;;;;;;6.90;5.65;;;;;;;18.73;56.26;100850.41;3564390;40;20057;-63
2022/06/23 05:30:28;;;;;;;10.63;6.00;;;;;;;18.84;56.35;100859.41;3568443;40;20150;-63
2022/06/23 05:33:14;;;;;;;10.85;6.60;;;;;;;18.89;56.94;100866.13;3566883;40;20061;-63
2022/06/23 05:35:59;;;;;;;10.70;6.07;;;;;;;18.95;56.23;100864.69;3565667;40;20089;-63
2022/06/23 05:38:37;;;;;;;12.23;6.53;;;;;;;19.02;56.43;100866.66;3569766;40;20385;-63
2022/06/23 05:41:22;;;;;;;12.52;6.15;;;;;;;19.11;55.72;100859.47;3567512;40;20053;-63
2022/06/23 05:43:52;;;;;;;9.63;6.07;;;;;;;19.18;55.17;100849.69;3567566;40;20094;-63
2022/06/23 05:46:23;;;;;;;10.18;5.75;;;;;;;19.19;55.53;100840.53;3568881;40;20067;-63
2022/06/23 05:49:34;;;;;;;12.60;6.10;;;;;;;19.28;54.92;100859.69;3570349;40;20403;-63
2022/06/23 05:52:06;;;;;;;16.02;7.18;;;;;;;19.33;54.57;100862.81;3568162;40;20065;-63
2022/06/23 05:55:00;;;;;;;19.35;7.13;;;;;;;19.44;54.25;100862.63;3566976;40;20056;-63
2022/06/23 05:57:43;;;;;;;19.10;7.00;;;;;;;19.49;55.11;100868.47;3567291;40;20434;-64
2022/06/23 06:00:57;;;;;;;19.23;6.97;;;;;;;19.66;55.22;100872.28;3567134;40;20065;-61
2022/06/23 06:03:41;;;;;;;22.70;7.73;;;;;;;19.80;55.08;100866.31;3556165;40;20060;-63
2022/06/23 06:06:07;;;;;;;15.05;6.90;;;;;;;19.91;54.61;100865.22;3566596;40;20167;-63
2022/06/23 06:11:52;;;;;;;14.18;6.03;;;;;;;20.31;54.15;100853.84;3568510;40;20131;-63
2022/06/23 06:14:28;;;;;;;23.60;7.07;;;;;;;20.46;53.22;100859.63;3567498;40;20054;-60
2022/06/23 06:16:59;;;;;;;22.45;7.15;;;;;;;20.61;52.97;100844.41;3570611;40;20071;-63
2022/06/23 06:19:30;;;;;;;26.65;7.28;;;;;;;20.82;52.95;100854.09;3567421;40;20044;-63
2022/06/23 06:22:14;;;;;;;23.95;6.97;;;;;;;21.03;52.10;100856.47;3566996;40;20060;-63
2022/06/23 06:24:48;;;;;;;28.67;7.40;;;;;;;21.24;50.92;100850.56;3569730;40;20059;-63
2022/06/23 06:27:14;;;;;;;27.23;7.90;;;;;;;21.39;51.51;100853.59;3570945;40;20091;-64
2022/06/23 06:29:43;;;;;;;32.03;7.97;;;;;;;21.58;50.25;100857.94;3568569;40;20383;-64
2022/06/23 06:32:33;;;;;;;38.30;8.30;;;;;;;21.81;49.64;100863.63;3571137;40;20303;-64
2022/06/23 06:35:24;;;;;;;8.05;5.57;;;;;;;22.03;48.27;100866.59;3569788;40;20048;-64
2022/06/23 06:38:00;;;;;;;7.63;5.05;;;;;;;22.29;48.05;100875.72;3568875;40;20925;-63
2022/06/23 06:40:27;;;;;;;9.23;5.32;;;;;;;22.43;47.97;100870.44;3570641;40;20056;-63
2022/06/23 06:43:04;;;;;;;9.77;5.50;;;;;;;22.60;47.26;100857.56;3570682;40;20113;-64
2022/06/23 06:45:36;;;;;;;9.00;5.40;;;;;;;22.82;46.31;100864.22;3570999;40;20163;-64
2022/06/23 06:48:12;;;;;;;11.45;5.78;;;;;;;22.98;46.90;100860.63;3570026;40;20067;-63
2022/06/23 06:50:46;;;;;;;16.15;5.95;;;;;;;23.12;46.63;100853.56;3567823;40;20155;-64
2022/06/23 06:53:40;;;;;;;24.25;6.90;;;;;;;23.35;47.24;100850.94;3569278;40;20063;-63
2022/06/23 06:56:31;;;;;;;;;;;;;;;23.45;46.90;100856.19;3571200;40;20085;-63
2022/06/23 06:59:37;;;;;;;18.75;5.88;;;;;;;23.64;45.88;100864.00;3564888;40;19940;-63
2022/06/23 07:02:34;;;;;;;25.35;6.63;;;;;;;23.84;45.31;100869.91;3569353;40;20068;-64
2022/06/23 07:05:29;;;;;;;14.57;5.50;;;;;;;23.89;46.07;100855.66;3570790;40;20085;-64
2022/06/23 07:08:25;;;;;;;12.75;5.43;;;;;;;24.23;45.34;100875.34;3569564;40;20064;-62
2022/06/23 07:11:20;;;;;;;9.35;4.57;;;;;;;24.42;45.68;100874.03;3560669;40;21636;-64
2022/06/23 07:14:01;;;;;;;6.85;4.95;;;;;;;24.60;43.50;100876.41;3564602;40;20056;-64
2022/06/23 07:17:20;;;;;;;11.18;5.20;;;;;;;24.69;44.75;100864.31;3568626;40;20117;-63
2022/06/23 07:20:01;;;;;;;8.32;4.35;;;;;;;24.91;44.21;100867.19;3567184;40;20327;-64
2022/06/23 07:22:39;;;;;;;12.05;5.45;;;;;;;25.11;44.94;100865.59;3570106;40;20272;-64
2022/06/23 07:25:21;;;;;;;11.77;4.90;;;;;;;25.31;45.06;100856.78;3569075;40;20048;-63
2022/06/23 07:27:57;;;;;;;9.75;5.03;;;;;;;25.58;46.20;100856.13;3568295;40;20406;-63
2022/06/23 07:30:29;;;;;;;15.30;5.63;;;;;;;25.85;44.37;100860.09;3560048;40;20053;-63
2022/06/23 07:33:20;;;;;;;14.48;5.25;;;;;;;26.05;45.10;100862.22;3568132;40;20076;-63
2022/06/23 07:35:56;;;;;;;17.67;5.85;;;;;;;26.14;43.90;100853.63;3569633;40;20082;-63
2022/06/23 07:38:39;;;;;;;19.95;5.28;;;;;;;26.24;45.01;100846.94;3569255;40;20403;-63
2022/06/23 07:41:22;;;;;;;10.15;4.72;;;;;;;26.55;44.86;100866.75;3569023;40;20085;-62
2022/06/23 07:44:08;;;;;;;12.02;5.43;;;;;;;26.79;43.91;100856.34;3570738;40;20069;-61
2022/06/23 07:46:38;;;;;;;10.70;5.53;;;;;;;26.89;44.11;100856.81;3568813;40;20084;-64
2022/06/23 07:49:06;;;;;;;10.95;5.40;;;;;;;27.06;45.42;100858.22;3571917;40;20069;-63
2022/06/23 07:51:35;;;;;;;10.05;6.10;;;;;;;27.13;43.85;100860.19;3570207;40;20049;-63
2022/06/23 07:54:01;;;;;;;9.18;5.25;;;;;;;27.26;43.63;100857.53;3572720;40;20085;-64
2022/06/23 07:56:33;;;;;;;9.93;5.50;;;;;;;27.08;43.31;100808.34;3571535;40;20064;-63
2022/06/23 07:59:08;;;;;;;12.25;5.40;;;;;;;27.55;43.55;100853.63;3568265;40;20320;-64
2022/06/23 08:01:50;;;;;;;10.30;5.45;;;;;;;27.72;44.18;100856.88;3569094;40;20048;-62
2022/06/23 08:04:43;;;;;;;9.63;4.75;;;;;;;27.91;43.59;100853.38;3568756;40;20064;-64
2022/06/23 08:07:12;;;;;;;10.90;5.70;;;;;;;28.11;43.60;100853.44;3568303;40;20131;-64
2022/06/23 08:09:57;;;;;;;10.88;6.00;;;;;;;28.26;44.08;100857.91;3568390;40;20093;-64
2022/06/23 08:12:53;;;;;;;10.02;4.97;;;;;;;28.38;42.49;100857.06;3571023;40;20041;-64
2022/06/23 08:18:38;;;;;;;10.52;4.85;;;;;;;28.38;43.79;100839.63;3568124;40;20129;-63
2022/06/23 08:21:29;;;;;;;9.57;4.65;;;;;;;28.64;42.77;100845.22;3567394;40;20056;-64
2022/06/23 08:24:18;;;;;;;8.93;4.65;;;;;;;28.84;43.25;100847.13;3567453;40;20065;-64
2022/06/23 08:26:53;;;;;;;6.78;4.25;;;;;;;28.98;42.15;100850.69;3567782;40;20045;-65
2022/06/23 08:29:29;;;;;;;9.25;4.20;;;;;;;29.09;41.53;100841.78;3566812;40;20075;-64
2022/06/23 08:31:59;;;;;;;6.97;3.78;;;;;;;29.12;42.08;100838.59;3561790;40;20041;-62
2022/06/23 08:34:25;;;;;;;7.07;3.67;;;;;;;29.22;41.10;100841.75;3568598;40;20319;-62
2022/06/23 08:37:04;;;;;;;9.57;4.05;;;;;;;29.25;41.10;100846.00;3567866;40;20100;-62
2022/06/23 08:39:47;;;;;;;7.05;4.00;;;;;;;29.36;41.42;100837.84;3571009;40;20056;-64
2022/06/23 08:42:34;;;;;;;6.53;3.47;;;;;;;29.54;40.99;100844.63;3569495;40;20057;-63
2022/06/23 08:45:44;;;;;;;6.65;3.67;;;;;;;29.72;42.15;100830.94;3567329;40;20060;-62
2022/06/23 08:48:27;;;;;;;12.50;5.30;;;;;;;29.86;41.29;100842.78;3560048;40;20060;-62
2022/06/23 08:51:19;;;;;;;16.23;9.13;;;;;;;30.02;40.11;100844.19;3566611;40;20053;-63
2022/06/23 08:54:10;;;;;;;9.50;3.97;;;;;;;30.18;39.39;100840.03;3567633;40;20089;-63
2022/06/23 08:57:03;;;;;;;10.07;3.85;;;;;;;30.35;40.40;100845.91;3569050;40;20482;-63
2022/06/23 08:59:56;;;;;;;6.20;3.78;;;;;;;30.45;40.52;100840.72;3568433;40;20061;-62
2022/06/23 09:02:31;;;;;;;7.57;3.92;;;;;;;30.20;39.87;100766.66;3568288;40;20049;-63
2022/06/23 09:05:11;;;;;;;6.72;3.42;;;;;;;30.72;39.29;100836.63;3567598;40;20058;-63
2022/06/23 09:08:13;;;;;;;4.95;3.08;;;;;;;30.98;38.91;100840.25;3566301;40;20053;-63
2022/06/23 09:10:58;;;;;;;10.10;3.80;;;;;;;31.20;37.50;100844.28;3567561;40;20091;-64
2022/06/23 09:14:03;;;;;;;9.52;3.58;;;;;;;31.31;39.09;100837.13;3570546;40;20312;-64
2022/06/23 09:17:14;;;;;;;8.88;3.80;;;;;;;31.37;38.48;100835.38;3568886;40;20072;-64
2022/06/23 09:19:47;;;;;;;12.40;4.32;;;;;;;31.58;38.86;100828.47;3569150;40;20067;-64
2022/06/23 09:22:24;;;;;;;;;;;;;;;31.83;39.16;100831.13;3570129;40;20306;-64
2022/06/23 09:25:28;;;;;;;12.63;3.85;;;;;;;31.99;39.22;100833.28;3569517;40;19945;-64
2022/06/23 09:28:17;;;;;;;5.82;3.10;;;;;;;32.06;39.18;100831.25;3569654;40;20222;-64
2022/06/23 09:31:42;;;;;;;6.68;3.13;;;;;;;32.10;38.54;100823.31;3570489;40;20057;-63
2022/06/23 09:34:37;;;;;;;7.72;3.20;;;;;;;32.13;38.89;100820.88;3567853;40;20049;-64
2022/06/23 09:37:40;;;;;;;9.98;3.42;;;;;;;31.98;39.75;100816.84;3567025;40;20049;-63
2022/06/23 09:40:17;;;;;;;5.82;3.40;;;;;;;32.03;39.84;100815.03;3566796;40;20041;-64
2022/06/23 09:43:20;;;;;;;9.98;3.50;;;;;;;31.92;39.37;100821.41;3567566;40;20114;-65
2022/06/23 09:46:16;;;;;;;9.93;3.77;;;;;;;31.72;40.14;100815.25;3565506;40;20076;-64
2022/06/23 09:48:57;;;;;;;10.00;3.83;;;;;;;31.79;39.46;100813.25;3568203;40;20059;-64
2022/06/23 09:52:21;;;;;;;7.95;3.28;;;;;;;32.05;38.72;100820.38;3568472;40;20407;-64
2022/06/23 09:55:33;;;;;;;13.43;3.47;;;;;;;32.17;39.01;100815.69;3562410;40;20059;-64
2022/06/23 09:58:25;;;;;;;10.88;3.92;;;;;;;32.25;37.93;100818.13;3567754;40;20167;-64
2022/06/23 10:01:18;;;;;;;10.77;4.00;;;;;;;32.36;38.51;100810.91;3567080;40;20053;-64
2022/06/23 10:04:29;;;;;;;8.15;4.05;;;;;;;32.30;39.19;100800.72;3566511;40;20096;-64
2022/06/23 10:07:29;;;;;;;6.97;3.60;;;;;;;32.31;38.01;100824.66;3538347;40;20050;-64
2022/06/23 10:10:26;;;;;;;8.25;4.20;;;;;;;31.97;39.00;100813.22;3564051;40;20132;-62
2022/06/23 10:13:27;;;;;;;9.60;4.63;;;;;;;31.99;40.88;100812.97;3558581;40;20091;-63
2022/06/23 10:16:33;;;;;;;13.85;4.75;;;;;;;32.16;39.81;100813.13;3567069;40;20060;-63
2022/06/23 10:19:47;;;;;;;9.65;3.72;;;;;;;32.40;38.32;100800.97;3566735;40;20051;-62
2022/06/23 10:22:34;;;;;;;8.45;4.20;;;;;;;32.58;38.59;100812.03;3565397;40;20056;-63
2022/06/23 10:25:52;;;;;;;6.90;3.75;;;;;;;32.76;37.83;100813.88;3568728;40;20157;-63
2022/06/23 10:28:26;;;;;;;10.00;4.10;;;;;;;32.92;37.93;100803.94;3566557;40;20064;-63
2022/06/23 10:31:50;;;;;;;9.52;3.58;;;;;;;33.05;36.62;100811.22;3566930;40;20057;-63
2022/06/23 10:34:36;;;;;;;7.28;3.45;;;;;;;33.14;35.73;100808.88;3565347;40;20067;-63
2022/06/23 10:37:48;;;;;;;8.65;3.30;;;;;;;33.19;35.13;100792.28;3567179;40;20056;-62
2022/06/23 10:40:59;;;;;;;7.68;3.13;;;;;;;33.42;35.70;100794.16;3570076;40;20456;-62
2022/06/23 10:44:07;;;;;;;9.95;3.58;;;;;;;33.49;35.74;100790.19;3568982;40;20065;-63
2022/06/23 10:47:07;;;;;;;9.38;2.97;;;;;;;33.51;33.22;100799.13;3565193;40;20045;-63
2022/06/23 10:50:14;;;;;;;7.47;2.92;;;;;;;33.62;35.38;100788.16;3566954;40;20048;-63
2022/06/23 10:52:59;;;;;;;6.70;3.10;;;;;;;33.71;34.11;100769.94;3564760;40;20060;-63
2022/06/23 10:55:40;;;;;;;7.15;3.15;;;;;;;33.69;34.60;100783.31;3567349;40;20056;-63
2022/06/23 10:58:44;;;;;;;6.88;3.22;;;;;;;33.57;34.58;100780.56;3566378;40;20053;-63
2022/06/23 11:01:56;;;;;;;8.60;4.15;;;;;;;33.86;34.63;100784.19;3568621;40;20156;-63
2022/06/23 11:05:05;;;;;;;10.32;3.47;;;;;;;34.12;33.53;100781.88;3568053;40;20100;-63
2022/06/23 11:08:26;;;;;;;8.38;3.50;;;;;;;34.14;33.50;100774.97;3566760;40;20496;-64
2022/06/23 11:11:00;;;;;;;7.40;3.30;;;;;;;34.20;34.49;100767.53;3566087;40;20057;-63
2022/06/23 11:13:44;;;;;;;10.10;3.40;;;;;;;34.32;35.20;100765.50;3568088;40;20053;-63
2022/06/23 11:16:59;;;;;;;9.40;3.38;;;;;;;34.32;33.91;100775.84;3568477;40;20099;-63
2022/06/23 11:20:03;;;;;;;6.80;3.40;;;;;;;34.29;33.91;100771.59;3561086;40;20111;-63
2022/06/23 11:22:48;;;;;;;11.80;3.78;;;;;;;34.20;33.21;100762.78;3568661;40;20332;-63
2022/06/23 11:26:04;;;;;;;8.88;3.45;;;;;;;34.58;33.07;100774.31;3571461;40;20057;-64
2022/06/23 11:29:14;;;;;;;8.02;3.88;;;;;;;34.49;32.83;100771.06;3568976;40;20114;-64
2022/06/23 11:32:29;;;;;;;10.30;3.78;;;;;;;34.73;32.89;100777.34;3569164;40;20122;-64
2022/06/23 11:35:25;;;;;;;9.07;3.70;;;;;;;34.69;33.37;100776.16;3545447;40;20473;-63
2022/06/23 11:38:41;;;;;;;9.23;3.67;;;;;;;34.79;32.03;100781.03;3566588;40;20053;-64
2022/06/23 11:41:51;;;;;;;16.08;3.60;;;;;;;34.92;32.20;100780.69;3568506;40;20055;-64
2022/06/23 11:44:59;;;;;;;7.55;3.13;;;;;;;34.94;32.13;100772.88;3569199;40;20064;-64
2022/06/23 11:47:47;;;;;;;7.88;3.55;;;;;;;35.13;32.90;100767.88;3568825;40;20057;-63
2022/06/23 11:50:47;;;;;;;10.70;3.53;;;;;;;34.92;32.48;100763.06;3569853;40;20067;-64
2022/06/23 11:53:40;;;;;;;9.63;3.50;;;;;;;35.20;33.25;100750.91;3568817;40;20120;-63
2022/06/23 11:56:39;;;;;;;9.43;3.58;;;;;;;35.41;31.66;100755.63;3567694;40;20115;-64
2022/06/23 11:59:45;;;;;;;9.82;3.50;;;;;;;35.60;32.78;100750.56;3567090;40;20131;-66
2022/06/23 12:02:11;;;;;;;10.35;3.55;;;;;;;34.98;32.32;100743.31;3568775;40;20053;-64
2022/06/23 12:05:09;;;;;;;11.10;3.55;;;;;;;35.21;33.89;100747.03;3568212;40;20394;-63
2022/06/23 12:08:08;;;;;;;8.35;3.78;;;;;;;35.44;30.34;100737.50;3567214;40;20052;-63
2022/06/23 12:10:37;;;;;;;12.40;3.30;;;;;;;35.60;31.44;100750.56;3568094;40;20045;-63
2022/06/23 12:13:05;;;;;;;9.40;3.47;;;;;;;35.76;32.57;100749.63;3567036;40;20057;-64
2022/06/23 12:15:45;;;;;;;9.55;3.10;;;;;;;35.82;31.53;100758.91;3566973;40;20389;-63
2022/06/23 12:18:26;;;;;;;10.18;3.30;;;;;;;35.08;31.89;100745.47;3571145;40;20040;-63
2022/06/23 12:21:10;;;;;;;5.75;2.90;;;;;;;35.30;31.70;100742.63;3567439;40;20392;-64
2022/06/23 12:23:47;;;;;;;6.97;3.58;;;;;;;35.63;31.32;100733.25;3569088;40;20045;-64
2022/06/23 12:26:31;;;;;;;9.82;3.38;;;;;;;35.95;30.51;100741.69;3571613;40;20053;-64
2022/06/23 12:29:19;;;;;;;7.93;3.30;;;;;;;36.00;29.53;100735.31;3571666;40;20063;-64
2022/06/23 12:32:25;;;;;;;7.50;2.90;;;;;;;36.17;29.92;100730.44;3573711;40;20103;-64
2022/06/23 12:35:22;;;;;;;8.00;3.00;;;;;;;36.26;30.77;100739.19;3542014;40;20061;-65
2022/06/23 12:38:05;;;;;;;9.00;2.78;;;;;;;35.87;30.28;100736.56;3568081;40;20059;-64
2022/06/23 12:40:49;;;;;;;9.02;4.32;;;;;;;36.02;30.88;100738.69;3571377;40;20147;-63
2022/06/23 12:43:51;;;;;;;8.93;3.00;;;;;;;35.74;30.75;100732.22;3571948;40;20049;-63
2022/06/23 12:46:37;;;;;;;7.03;2.70;;;;;;;35.97;30.29;100728.28;3570558;40;20325;-64
2022/06/23 12:49:38;;;;;;;5.97;2.90;;;;;;;36.18;30.23;100726.50;3569468;40;20279;-64
2022/06/23 12:52:04;;;;;;;8.63;3.17;;;;;;;36.37;31.28;100717.69;3566472;40;20053;-64
2022/06/23 12:54:59;;;;;;;5.03;3.22;;;;;;;36.23;30.05;100720.97;3568981;40;20057;-64
2022/06/23 12:57:31;;;;;;;5.97;3.15;;;;;;;35.84;30.69;100716.66;3567845;40;20331;-63
2022/06/23 13:00:13;;;;;;;7.78;3.35;;;;;;;35.81;29.91;100715.25;3570387;40;20594;-64
2022/06/23 13:03:20;;;;;;;6.88;3.00;;;;;;;35.62;29.47;100714.81;3560732;40;20376;-64
2022/06/23 13:06:46;;;;;;;9.23;3.30;;;;;;;35.43;30.80;100707.81;3569318;40;20106;-63
2022/06/23 13:09:17;;;;;;;7.93;3.08;;;;;;;34.94;31.29;100705.84;3549227;40;20069;-63